EZY1934 EGCC-EGPH
Flight info
| Callsign | EZY1934 |
|---|---|
| Flight time | 0h 46m |
| Altitude | 24000 |
| Route | POL N601 INPIP |
| Aircraft | A20N/M-SDE2E3FGHIRWXY/LB1 |
Departure
| Time | 2026-04-23 21:54 |
|---|---|
| Airport | Manchester Airport (EGCC) |
Arrival
| Time | 2026-04-23 22:40 |
|---|---|
| Airport | Edinburgh Airport (EGPH) |
| Time | Latitude | Longitude | Altitude | Speed | Heading |
|---|---|---|---|---|---|
| 2026-04-23 21:17 | 53.35977 | -2.26980 | 248 ft | 0 kts | 290° |
| 2026-04-23 21:42 | 53.35977 | -2.26979 | 248 ft | 2 kts | 290° |
| 2026-04-23 21:42 | 53.35972 | -2.26957 | 248 ft | 2 kts | 290° |
| 2026-04-23 21:42 | 53.35966 | -2.26932 | 248 ft | 3 kts | 290° |
| 2026-04-23 21:42 | 53.35960 | -2.26904 | 248 ft | 3 kts | 293° |
| 2026-04-23 21:43 | 53.35952 | -2.26877 | 248 ft | 3 kts | 301° |
| 2026-04-23 21:43 | 53.35943 | -2.26852 | 248 ft | 3 kts | 273° |
| 2026-04-23 21:43 | 53.35946 | -2.26832 | 249 ft | 1 kts | 217° |
| 2026-04-23 21:43 | 53.35949 | -2.26829 | 249 ft | 0 kts | 199° |
| 2026-04-23 21:44 | 53.35944 | -2.26830 | 249 ft | 1 kts | 193° |
| 2026-04-23 21:44 | 53.35940 | -2.26831 | 249 ft | 0 kts | 191° |
| 2026-04-23 21:48 | 53.35903 | -2.26847 | 248 ft | 16 kts | 202° |
| 2026-04-23 21:49 | 53.35819 | -2.27043 | 246 ft | 24 kts | 235° |
| 2026-04-23 21:49 | 53.35712 | -2.27266 | 243 ft | 25 kts | 230° |
| 2026-04-23 21:49 | 53.35597 | -2.27500 | 240 ft | 27 kts | 231° |
| 2026-04-23 21:49 | 53.35481 | -2.27742 | 237 ft | 21 kts | 232° |
| 2026-04-23 21:50 | 53.35430 | -2.27964 | 239 ft | 21 kts | 227° |
| 2026-04-23 21:50 | 53.35316 | -2.28150 | 233 ft | 25 kts | 224° |
| 2026-04-23 21:50 | 53.35195 | -2.28376 | 230 ft | 28 kts | 231° |
| 2026-04-23 21:50 | 53.35074 | -2.28626 | 227 ft | 24 kts | 231° |
| 2026-04-23 21:51 | 53.34974 | -2.28816 | 224 ft | 17 kts | 226° |
| 2026-04-23 21:51 | 53.34888 | -2.28968 | 222 ft | 20 kts | 226° |
| 2026-04-23 21:51 | 53.34792 | -2.29144 | 219 ft | 17 kts | 229° |
| 2026-04-23 21:51 | 53.34701 | -2.29307 | 217 ft | 19 kts | 214° |
| 2026-04-23 21:52 | 53.34690 | -2.29318 | 219 ft | 0 kts | 210° |
| 2026-04-23 21:53 | 53.34653 | -2.29340 | 216 ft | 16 kts | 193° |
| 2026-04-23 21:53 | 53.34549 | -2.29280 | 215 ft | 14 kts | 120° |
| 2026-04-23 21:53 | 53.34566 | -2.29166 | 215 ft | 11 kts | 53° |
| 2026-04-23 21:54 | 53.34666 | -2.28955 | 219 ft | 57 kts | 50° |
| 2026-04-23 21:54 | 53.35108 | -2.28048 | 231 ft | 139 kts | 51° |
| 2026-04-23 21:54 | 53.35831 | -2.26555 | 479 ft | 183 kts | 52° |
| 2026-04-23 21:54 | 53.36649 | -2.24878 | 1370 ft | 181 kts | 52° |
| 2026-04-23 21:55 | 53.37426 | -2.23283 | 2455 ft | 179 kts | 54° |
| 2026-04-23 21:55 | 53.38229 | -2.21538 | 3051 ft | 200 kts | 56° |
| 2026-04-23 21:55 | 53.39093 | -2.19572 | 3628 ft | 219 kts | 55° |
| 2026-04-23 21:55 | 53.40064 | -2.17418 | 4246 ft | 238 kts | 54° |
| 2026-04-23 21:56 | 53.41127 | -2.15134 | 4791 ft | 261 kts | 53° |
| 2026-04-23 21:56 | 53.42269 | -2.12720 | 4965 ft | 265 kts | 52° |
| 2026-04-23 21:56 | 53.43425 | -2.10313 | 4993 ft | 265 kts | 50° |
| 2026-04-23 21:56 | 53.44903 | -2.08464 | 5001 ft | 268 kts | 23° |
| 2026-04-23 21:57 | 53.46739 | -2.07974 | 4996 ft | 271 kts | 356° |
| 2026-04-23 21:57 | 53.48577 | -2.08556 | 5000 ft | 273 kts | 347° |
| 2026-04-23 21:57 | 53.50432 | -2.09257 | 5000 ft | 272 kts | 350° |
| 2026-04-23 21:57 | 53.52310 | -2.09732 | 5003 ft | 272 kts | 355° |
| 2026-04-23 21:58 | 53.54191 | -2.09980 | 5000 ft | 272 kts | 358° |
| 2026-04-23 21:58 | 53.56083 | -2.10087 | 5000 ft | 272 kts | 0° |
| 2026-04-23 21:58 | 53.57975 | -2.10128 | 5005 ft | 271 kts | 1° |
| 2026-04-23 21:58 | 53.59795 | -2.10148 | 5003 ft | 271 kts | 1° |
| 2026-04-23 21:59 | 53.61753 | -2.10165 | 4999 ft | 272 kts | 1° |
| 2026-04-23 21:59 | 53.63640 | -2.10185 | 5009 ft | 271 kts | 1° |
| 2026-04-23 21:59 | 53.65530 | -2.10208 | 5008 ft | 272 kts | 1° |
| 2026-04-23 22:00 | 53.69305 | -2.10260 | 5020 ft | 274 kts | 1° |
| 2026-04-23 22:00 | 53.71201 | -2.10287 | 5019 ft | 271 kts | 1° |
| 2026-04-23 22:00 | 53.73101 | -2.10326 | 5016 ft | 273 kts | 358° |
| 2026-04-23 22:00 | 53.74991 | -2.10843 | 5255 ft | 277 kts | 345° |
| 2026-04-23 22:01 | 53.76799 | -2.11999 | 6076 ft | 278 kts | 338° |
| 2026-04-23 22:01 | 53.78576 | -2.13227 | 7302 ft | 275 kts | 339° |
| 2026-04-23 22:01 | 53.80366 | -2.14432 | 8343 ft | 278 kts | 339° |
| 2026-04-23 22:01 | 53.82176 | -2.15648 | 9405 ft | 281 kts | 338° |
| 2026-04-23 22:02 | 53.84004 | -2.16881 | 10460 ft | 283 kts | 338° |
| 2026-04-23 22:02 | 53.85850 | -2.18133 | 11138 ft | 300 kts | 337° |
| 2026-04-23 22:02 | 53.87863 | -2.19507 | 11530 ft | 323 kts | 337° |
| 2026-04-23 22:02 | 53.90008 | -2.20977 | 12081 ft | 338 kts | 336° |
| 2026-04-23 22:03 | 53.92204 | -2.22481 | 12976 ft | 342 kts | 336° |
| 2026-04-23 22:03 | 53.94429 | -2.24007 | 13860 ft | 347 kts | 336° |
| 2026-04-23 22:03 | 53.96678 | -2.25553 | 14706 ft | 351 kts | 336° |
| 2026-04-23 22:03 | 53.98954 | -2.27120 | 15501 ft | 354 kts | 336° |
| 2026-04-23 22:04 | 54.01252 | -2.28706 | 16296 ft | 358 kts | 337° |
| 2026-04-23 22:04 | 54.03585 | -2.30318 | 17053 ft | 363 kts | 338° |
| 2026-04-23 22:04 | 54.05944 | -2.31951 | 17805 ft | 368 kts | 338° |
| 2026-04-23 22:04 | 54.08305 | -2.33590 | 18549 ft | 372 kts | 339° |
| 2026-04-23 22:05 | 54.10723 | -2.35271 | 19230 ft | 376 kts | 339° |
| 2026-04-23 22:05 | 54.13149 | -2.36957 | 19921 ft | 379 kts | 339° |
| 2026-04-23 22:05 | 54.15603 | -2.38662 | 20604 ft | 382 kts | 339° |
| 2026-04-23 22:05 | 54.18077 | -2.40381 | 21262 ft | 386 kts | 339° |
| 2026-04-23 22:06 | 54.20571 | -2.42113 | 21936 ft | 388 kts | 339° |
| 2026-04-23 22:06 | 54.23091 | -2.43865 | 22591 ft | 392 kts | 339° |
| 2026-04-23 22:06 | 54.25628 | -2.45631 | 23251 ft | 395 kts | 339° |
| 2026-04-23 22:06 | 54.28154 | -2.47393 | 23885 ft | 398 kts | 339° |
| 2026-04-23 22:07 | 54.30739 | -2.49198 | 24221 ft | 401 kts | 339° |
| 2026-04-23 22:07 | 54.33330 | -2.51010 | 24384 ft | 402 kts | 339° |
| 2026-04-23 22:07 | 54.35921 | -2.52825 | 24447 ft | 403 kts | 339° |
| 2026-04-23 22:07 | 54.38517 | -2.54645 | 24449 ft | 403 kts | 339° |
| 2026-04-23 22:08 | 54.41115 | -2.56470 | 24449 ft | 403 kts | 339° |
| 2026-04-23 22:08 | 54.43714 | -2.58299 | 24449 ft | 404 kts | 339° |
| 2026-04-23 22:08 | 54.46311 | -2.60127 | 24446 ft | 404 kts | 339° |
| 2026-04-23 22:08 | 54.48914 | -2.61963 | 24450 ft | 404 kts | 339° |
| 2026-04-23 22:09 | 54.51519 | -2.63803 | 24448 ft | 404 kts | 339° |
| 2026-04-23 22:09 | 54.54091 | -2.65623 | 24445 ft | 405 kts | 339° |
| 2026-04-23 22:09 | 54.56695 | -2.67470 | 24445 ft | 405 kts | 339° |
| 2026-04-23 22:09 | 54.59306 | -2.69323 | 24445 ft | 405 kts | 339° |
| 2026-04-23 22:10 | 54.61912 | -2.71176 | 24446 ft | 406 kts | 339° |
| 2026-04-23 22:10 | 54.64535 | -2.73043 | 24445 ft | 406 kts | 339° |
| 2026-04-23 22:10 | 54.67155 | -2.74910 | 24443 ft | 406 kts | 338° |
| 2026-04-23 22:10 | 54.69771 | -2.76777 | 24446 ft | 406 kts | 338° |
| 2026-04-23 22:11 | 54.72356 | -2.78624 | 24445 ft | 407 kts | 338° |
| 2026-04-23 22:11 | 54.74988 | -2.80507 | 24444 ft | 407 kts | 338° |
| 2026-04-23 22:11 | 54.77607 | -2.82383 | 24448 ft | 407 kts | 338° |
| 2026-04-23 22:11 | 54.80233 | -2.84268 | 24443 ft | 407 kts | 338° |
| 2026-04-23 22:12 | 54.82821 | -2.86128 | 24440 ft | 408 kts | 338° |
| 2026-04-23 22:12 | 54.85444 | -2.88016 | 24287 ft | 408 kts | 338° |
| 2026-04-23 22:12 | 54.88065 | -2.89905 | 24054 ft | 407 kts | 338° |
| 2026-04-23 22:12 | 54.90680 | -2.91793 | 23787 ft | 405 kts | 338° |
| 2026-04-23 22:13 | 54.93282 | -2.93673 | 23507 ft | 404 kts | 338° |
| 2026-04-23 22:13 | 54.95877 | -2.95550 | 23242 ft | 403 kts | 338° |
| 2026-04-23 22:13 | 54.98464 | -2.97424 | 22964 ft | 402 kts | 338° |
| 2026-04-23 22:13 | 55.01014 | -2.99274 | 22708 ft | 401 kts | 338° |
| 2026-04-23 22:14 | 55.03585 | -3.01141 | 22442 ft | 399 kts | 338° |
| 2026-04-23 22:14 | 55.06145 | -3.03003 | 22187 ft | 399 kts | 338° |
| 2026-04-23 22:14 | 55.08705 | -3.04868 | 21755 ft | 399 kts | 338° |
| 2026-04-23 22:14 | 55.11268 | -3.06738 | 21185 ft | 399 kts | 337° |
| 2026-04-23 22:15 | 55.13823 | -3.08605 | 20697 ft | 393 kts | 337° |
| 2026-04-23 22:15 | 55.16315 | -3.10428 | 20483 ft | 384 kts | 337° |
| 2026-04-23 22:15 | 55.18753 | -3.12215 | 20358 ft | 372 kts | 337° |
| 2026-04-23 22:15 | 55.21065 | -3.13911 | 20225 ft | 359 kts | 337° |
| 2026-04-23 22:16 | 55.23325 | -3.15573 | 20091 ft | 346 kts | 337° |
| 2026-04-23 22:16 | 55.25531 | -3.17196 | 19711 ft | 343 kts | 337° |
| 2026-04-23 22:16 | 55.27732 | -3.18810 | 19250 ft | 342 kts | 338° |
| 2026-04-23 22:16 | 55.30016 | -3.19894 | 18831 ft | 340 kts | 352° |
| 2026-04-23 22:17 | 55.32372 | -3.20045 | 18370 ft | 338 kts | 5° |
| 2026-04-23 22:17 | 55.34708 | -3.19653 | 17927 ft | 336 kts | 5° |
| 2026-04-23 22:17 | 55.37025 | -3.19285 | 17492 ft | 333 kts | 5° |
| 2026-04-23 22:17 | 55.39331 | -3.18929 | 17058 ft | 331 kts | 5° |
| 2026-04-23 22:18 | 55.40848 | -3.18695 | 16763 ft | 330 kts | 5° |
| 2026-04-23 22:18 | 55.41090 | -3.18658 | 16726 ft | 329 kts | 5° |
| 2026-04-23 22:18 | 55.42764 | -3.18399 | 16416 ft | 328 kts | 5° |
| 2026-04-23 22:18 | 55.45004 | -3.18051 | 16007 ft | 325 kts | 5° |
| 2026-04-23 22:19 | 55.47283 | -3.17685 | 15576 ft | 324 kts | 5° |
| 2026-04-23 22:19 | 55.49516 | -3.17238 | 14891 ft | 332 kts | 6° |
| 2026-04-23 22:19 | 55.51837 | -3.16728 | 14116 ft | 341 kts | 6° |
| 2026-04-23 22:19 | 55.54231 | -3.16200 | 13193 ft | 350 kts | 6° |
| 2026-04-23 22:20 | 55.56685 | -3.15669 | 12236 ft | 360 kts | 6° |
| 2026-04-23 22:20 | 55.59202 | -3.15134 | 11339 ft | 367 kts | 6° |
| 2026-04-23 22:20 | 55.61734 | -3.14601 | 10885 ft | 361 kts | 6° |
| 2026-04-23 22:20 | 55.64176 | -3.14080 | 10670 ft | 346 kts | 6° |
| 2026-04-23 22:21 | 55.66249 | -3.13631 | 10427 ft | 332 kts | 6° |
| 2026-04-23 22:21 | 55.68490 | -3.13145 | 10137 ft | 315 kts | 6° |
| 2026-04-23 22:21 | 55.70585 | -3.12692 | 9858 ft | 300 kts | 6° |
| 2026-04-23 22:21 | 55.72614 | -3.12254 | 9535 ft | 293 kts | 6° |
| 2026-04-23 22:22 | 55.74641 | -3.11819 | 9086 ft | 291 kts | 6° |
| 2026-04-23 22:22 | 55.76663 | -3.11388 | 8652 ft | 288 kts | 6° |
| 2026-04-23 22:22 | 55.78625 | -3.10819 | 8233 ft | 291 kts | 14° |
| 2026-04-23 22:22 | 55.80555 | -3.09721 | 7813 ft | 291 kts | 18° |
| 2026-04-23 22:23 | 55.82475 | -3.08589 | 7446 ft | 288 kts | 18° |
| 2026-04-23 22:23 | 55.84358 | -3.07481 | 7187 ft | 282 kts | 18° |
| 2026-04-23 22:23 | 55.86219 | -3.06392 | 6825 ft | 280 kts | 18° |
| 2026-04-23 22:23 | 55.88045 | -3.05326 | 6440 ft | 279 kts | 18° |
| 2026-04-23 22:24 | 55.89869 | -3.04265 | 6226 ft | 270 kts | 18° |
| 2026-04-23 22:24 | 55.91622 | -3.03247 | 6123 ft | 259 kts | 18° |
| 2026-04-23 22:24 | 55.93291 | -3.02233 | 6025 ft | 247 kts | 20° |
| 2026-04-23 22:24 | 55.94876 | -3.01209 | 5926 ft | 237 kts | 20° |
| 2026-04-23 22:25 | 55.96401 | -3.00188 | 5719 ft | 232 kts | 25° |
| 2026-04-23 22:25 | 55.97780 | -2.98719 | 5431 ft | 231 kts | 38° |
| 2026-04-23 22:25 | 55.98999 | -2.96858 | 5155 ft | 230 kts | 45° |
| 2026-04-23 22:25 | 56.00027 | -2.94704 | 4906 ft | 226 kts | 58° |
| 2026-04-23 22:26 | 56.00871 | -2.92334 | 4636 ft | 225 kts | 59° |
| 2026-04-23 22:26 | 56.01699 | -2.89967 | 4367 ft | 224 kts | 59° |
| 2026-04-23 22:26 | 56.02512 | -2.87646 | 4128 ft | 222 kts | 59° |
| 2026-04-23 22:26 | 56.03339 | -2.85282 | 3882 ft | 221 kts | 59° |
| 2026-04-23 22:27 | 56.04141 | -2.82988 | 3619 ft | 220 kts | 59° |
| 2026-04-23 22:27 | 56.04950 | -2.80672 | 3379 ft | 218 kts | 59° |
| 2026-04-23 22:27 | 56.05753 | -2.78374 | 3129 ft | 217 kts | 59° |
| 2026-04-23 22:27 | 56.06544 | -2.76111 | 3003 ft | 213 kts | 59° |
| 2026-04-23 22:28 | 56.07343 | -2.73817 | 2992 ft | 217 kts | 59° |
| 2026-04-23 22:28 | 56.08140 | -2.71527 | 2994 ft | 216 kts | 59° |
| 2026-04-23 22:28 | 56.08935 | -2.69245 | 2993 ft | 216 kts | 59° |
| 2026-04-23 22:28 | 56.09958 | -2.67286 | 2992 ft | 219 kts | 31° |
| 2026-04-23 22:29 | 56.11425 | -2.66600 | 3002 ft | 222 kts | 1° |
| 2026-04-23 22:29 | 56.12962 | -2.66790 | 2985 ft | 222 kts | 343° |
| 2026-04-23 22:29 | 56.13873 | -2.67605 | 2988 ft | 223 kts | 321° |
| 2026-04-23 22:29 | 56.14872 | -2.70656 | 2989 ft | 210 kts | 274° |
| 2026-04-23 22:30 | 56.14647 | -2.73089 | 2994 ft | 191 kts | 245° |
| 2026-04-23 22:30 | 56.14070 | -2.75257 | 2995 ft | 195 kts | 240° |
| 2026-04-23 22:30 | 56.13666 | -2.76683 | 2989 ft | 193 kts | 241° |
| 2026-04-23 22:30 | 56.13062 | -2.78830 | 2992 ft | 193 kts | 241° |
| 2026-04-23 22:31 | 56.12455 | -2.80980 | 2991 ft | 193 kts | 241° |
| 2026-04-23 22:31 | 56.11859 | -2.83093 | 3012 ft | 182 kts | 241° |
| 2026-04-23 22:31 | 56.11317 | -2.85030 | 2986 ft | 165 kts | 241° |
| 2026-04-23 22:31 | 56.10857 | -2.86796 | 2983 ft | 148 kts | 244° |
| 2026-04-23 22:32 | 56.10447 | -2.88490 | 2997 ft | 152 kts | 244° |
| 2026-04-23 22:32 | 56.10033 | -2.90196 | 2991 ft | 148 kts | 244° |
| 2026-04-23 22:32 | 56.09621 | -2.91897 | 2990 ft | 148 kts | 244° |
| 2026-04-23 22:32 | 56.09209 | -2.93587 | 2997 ft | 149 kts | 244° |
| 2026-04-23 22:33 | 56.08794 | -2.95289 | 2990 ft | 149 kts | 244° |
| 2026-04-23 22:33 | 56.08385 | -2.97004 | 2989 ft | 150 kts | 246° |
| 2026-04-23 22:33 | 56.07971 | -2.98713 | 2992 ft | 149 kts | 242° |
| 2026-04-23 22:33 | 56.07480 | -3.00343 | 2994 ft | 149 kts | 239° |
| 2026-04-23 22:34 | 56.07045 | -3.01993 | 3005 ft | 149 kts | 243° |
| 2026-04-23 22:34 | 56.06581 | -3.03653 | 3007 ft | 149 kts | 238° |
| 2026-04-23 22:34 | 56.06036 | -3.05222 | 3013 ft | 148 kts | 233° |
| 2026-04-23 22:34 | 56.05428 | -3.06708 | 3013 ft | 148 kts | 230° |
| 2026-04-23 22:35 | 56.04817 | -3.08191 | 2993 ft | 149 kts | 233° |
| 2026-04-23 22:35 | 56.04265 | -3.09755 | 2991 ft | 148 kts | 238° |
| 2026-04-23 22:35 | 56.03763 | -3.11373 | 2983 ft | 149 kts | 239° |
| 2026-04-23 22:35 | 56.03289 | -3.12978 | 2982 ft | 139 kts | 240° |
| 2026-04-23 22:36 | 56.02842 | -3.14488 | 2902 ft | 137 kts | 239° |
| 2026-04-23 22:36 | 56.02375 | -3.15967 | 2761 ft | 137 kts | 237° |
| 2026-04-23 22:36 | 56.01877 | -3.17420 | 2568 ft | 136 kts | 235° |
| 2026-04-23 22:36 | 56.01359 | -3.18832 | 2365 ft | 136 kts | 233° |
| 2026-04-23 22:37 | 56.00830 | -3.20206 | 2143 ft | 135 kts | 233° |
| 2026-04-23 22:37 | 56.00299 | -3.21597 | 1972 ft | 136 kts | 235° |
| 2026-04-23 22:37 | 55.99809 | -3.23047 | 1777 ft | 136 kts | 238° |
| 2026-04-23 22:37 | 55.99342 | -3.24516 | 1580 ft | 136 kts | 238° |
| 2026-04-23 22:38 | 55.98859 | -3.25971 | 1419 ft | 136 kts | 237° |
| 2026-04-23 22:38 | 55.98369 | -3.27416 | 1226 ft | 136 kts | 237° |
| 2026-04-23 22:38 | 55.97882 | -3.28863 | 1053 ft | 135 kts | 237° |
| 2026-04-23 22:38 | 55.97398 | -3.30296 | 879 ft | 135 kts | 237° |
| 2026-04-23 22:39 | 55.96906 | -3.31707 | 733 ft | 134 kts | 236° |
| 2026-04-23 22:39 | 55.96401 | -3.33121 | 510 ft | 134 kts | 236° |
| 2026-04-23 22:39 | 55.95914 | -3.34505 | 319 ft | 130 kts | 238° |
| 2026-04-23 22:39 | 55.95454 | -3.35901 | 161 ft | 131 kts | 239° |
| 2026-04-23 22:40 | 55.95021 | -3.37197 | 110 ft | 89 kts | 238° |
| 2026-04-23 22:40 | 55.94778 | -3.37892 | 115 ft | 56 kts | 238° |
| 2026-04-23 22:40 | 55.94607 | -3.37967 | 111 ft | 0 kts | 145° |
| 2026-04-23 22:41 | 55.94602 | -3.37957 | 111 ft | 6 kts | 135° |
| 2026-04-23 22:42 | 55.94601 | -3.37857 | 111 ft | 11 kts | 64° |
| 2026-04-23 22:42 | 55.94644 | -3.37730 | 113 ft | 13 kts | 58° |
| 2026-04-23 22:42 | 55.94701 | -3.37572 | 109 ft | 17 kts | 57° |
| 2026-04-23 22:42 | 55.94764 | -3.37380 | 110 ft | 19 kts | 60° |
| 2026-04-23 22:43 | 55.94832 | -3.37167 | 110 ft | 21 kts | 59° |
| 2026-04-23 22:43 | 55.94907 | -3.36958 | 111 ft | 16 kts | 57° |
| 2026-04-23 22:43 | 55.94908 | -3.36813 | 112 ft | 10 kts | 136° |
| 2026-04-23 22:43 | 55.94915 | -3.36693 | 109 ft | 12 kts | 62° |
| 2026-04-23 22:44 | 55.94966 | -3.36543 | 111 ft | 15 kts | 56° |
| 2026-04-23 22:44 | 55.94940 | -3.36452 | 112 ft | 7 kts | 147° |
| 2026-04-23 22:44 | 55.94923 | -3.36432 | 112 ft | 0 kts | 147° |